Arrantzale — EBVT — position and weather

sailwx.info

Track history (hours):
 
Tides and Currents Weather Stations Pressure Air Temp Water Temp Dewpoint Dewpoint Depression Visibility Wind Speed Wind Dir Waves Ship Positions

Arrantzale

Last reported at 2016-Dec-05 11:32 UTC. Time now 2016-Dec-06 10:19 UTC.
Position N 43°23' W 001°47'.

Length 32 m.

Type: Fishing. MMSI: 224065290.

Date/timePositionNaut miles runAvg speedWind from/ knotsBaromVisibWave heightAir tempDewpointWater temp
2016-Dec-05 11:32N 43°23' W 001°47'0 0.0
2016-Dec-05 10:33N 43°23' W 001°47'0 0.0
2016-Dec-05 09:33N 43°23' W 001°47'  
2016-Dec-01 10:33N 43°23' W 001°47'0 0.0
2016-Dec-01 09:33N 43°23' W 001°47'0 0.0
2016-Dec-01 07:24N 43°23' W 001°47'0 0.0
2016-Nov-30 10:33N 43°23' W 001°47'0 0.0
2016-Nov-30 09:33N 43°23' W 001°47'0 0.0
2016-Nov-30 08:33N 43°23' W 001°47'1 1.0
2016-Nov-30 07:33N 43°24' W 001°48'1 1.0
2016-Nov-30 06:33N 43°23' W 001°48'0 0.4
2016-Nov-30 05:33N 43°23' W 001°47'10 9.5
2016-Nov-30 04:33N 43°33' W 001°48'9 9.1
2016-Nov-30 03:33N 43°42' W 001°49'2 2.1
2016-Nov-30 02:33N 43°44' W 001°49'1 1.3
2016-Nov-30 01:33N 43°43' W 001°47'1010.5
2016-Nov-30 00:33N 43°33' W 001°53'7 7.2
2016-Nov-29 23:33N 43°26' W 001°55'2 1.1
2016-Nov-29 21:33N 43°26' W 001°52'3 2.8
2016-Nov-29 20:33N 43°23' W 001°51'0 0.0
2016-Nov-29 19:33N 43°23' W 001°51'0 0.0
2016-Nov-29 18:33N 43°23' W 001°51'2 2.1
2016-Nov-29 17:33N 43°25' W 001°53'3 2.6
2016-Nov-29 16:28N 43°26' W 001°50'3 0.5
2016-Nov-29 09:25N 43°23' W 001°48'1 0.7
2016-Nov-29 08:33N 43°24' W 001°47'9 0.5
2016-Nov-28 15:30N 43°33' W 001°44'9 9.2
2016-Nov-28 14:33N 43°24' W 001°47'  
Track history (hours):
 
Tides and Currents Weather Stations Pressure Air Temp Water Temp Dewpoint Dewpoint Depression Visibility Wind Speed Wind Dir Waves Ship Positions

Arrantzale

Last reported at 2016-Dec-05 11:32 UTC. Time now 2016-Dec-06 10:19 UTC.
Position N 43°23' W 001°47'.

Length 32 m.

Type: Fishing. MMSI: 224065290.

Date/timePositionNaut miles runAvg speedWind from/ knotsBaromVisibWave heightAir tempDewpointWater temp
2016-Dec-05 11:32N 43°23' W 001°47'0 0.0
2016-Dec-05 10:33N 43°23' W 001°47'0 0.0
2016-Dec-05 09:33N 43°23' W 001°47'  
2016-Dec-01 10:33N 43°23' W 001°47'0 0.0
2016-Dec-01 09:33N 43°23' W 001°47'0 0.0
2016-Dec-01 07:24N 43°23' W 001°47'0 0.0
2016-Nov-30 10:33N 43°23' W 001°47'0 0.0
2016-Nov-30 09:33N 43°23' W 001°47'0 0.0
2016-Nov-30 08:33N 43°23' W 001°47'1 1.0
2016-Nov-30 07:33N 43°24' W 001°48'1 1.0
2016-Nov-30 06:33N 43°23' W 001°48'0 0.4
2016-Nov-30 05:33N 43°23' W 001°47'10 9.5
2016-Nov-30 04:33N 43°33' W 001°48'9 9.1
2016-Nov-30 03:33N 43°42' W 001°49'2 2.1
2016-Nov-30 02:33N 43°44' W 001°49'1 1.3
2016-Nov-30 01:33N 43°43' W 001°47'1010.5
2016-Nov-30 00:33N 43°33' W 001°53'7 7.2
2016-Nov-29 23:33N 43°26' W 001°55'2 1.1
2016-Nov-29 21:33N 43°26' W 001°52'3 2.8
2016-Nov-29 20:33N 43°23' W 001°51'0 0.0
2016-Nov-29 19:33N 43°23' W 001°51'0 0.0
2016-Nov-29 18:33N 43°23' W 001°51'2 2.1
2016-Nov-29 17:33N 43°25' W 001°53'3 2.6
2016-Nov-29 16:28N 43°26' W 001°50'3 0.5
2016-Nov-29 09:25N 43°23' W 001°48'1 0.7
2016-Nov-29 08:33N 43°24' W 001°47'9 0.5
2016-Nov-28 15:30N 43°33' W 001°44'9 9.2
2016-Nov-28 14:33N 43°24' W 001°47'  

Dump ship's entire track history